createdAt,value
2023-01-19T00:00:26.904Z,14.32
2023-01-19T00:02:54.978Z,14.85
2023-01-19T00:05:21.913Z,13.85
2023-01-19T00:07:48.334Z,13.93
2023-01-19T00:10:14.875Z,15.43
2023-01-19T00:12:41.317Z,13.25
2023-01-19T00:15:08.243Z,15.32
2023-01-19T00:17:35.116Z,14.25
2023-01-19T00:20:01.536Z,13.20
2023-01-19T00:22:27.895Z,14.00
2023-01-19T00:24:54.328Z,15.52
2023-01-19T00:27:20.821Z,15.05
2023-01-19T00:29:47.246Z,15.32
2023-01-19T00:32:13.952Z,18.33
2023-01-19T00:34:42.623Z,16.27
2023-01-19T00:37:10.080Z,16.92
2023-01-19T00:39:36.499Z,16.13
2023-01-19T00:42:21.597Z,17.98
2023-01-19T00:44:48.042Z,15.07
2023-01-19T00:47:14.431Z,15.35
2023-01-19T00:49:40.837Z,18.50
2023-01-19T00:52:07.223Z,18.95
2023-01-19T00:54:33.669Z,16.13
2023-01-19T00:57:00.193Z,17.65
2023-01-19T00:59:26.656Z,17.55
2023-01-19T01:01:53.295Z,20.13
2023-01-19T01:04:19.980Z,18.73
2023-01-19T01:06:46.471Z,18.45
2023-01-19T01:09:13.050Z,20.23
2023-01-19T01:11:41.550Z,19.77
2023-01-19T01:14:09.362Z,19.00
2023-01-19T01:16:35.975Z,18.33
2023-01-19T01:19:02.504Z,19.17
2023-01-19T01:21:28.886Z,20.58
2023-01-19T01:23:55.315Z,19.40
2023-01-19T01:26:21.810Z,17.88
2023-01-19T01:28:48.272Z,20.02
2023-01-19T01:31:14.677Z,17.63
2023-01-19T01:33:41.855Z,20.70
2023-01-19T01:36:10.331Z,17.95
2023-01-19T01:38:36.830Z,19.33
2023-01-19T01:41:03.577Z,17.65
2023-01-19T01:43:50.066Z,17.13
2023-01-19T01:46:17.948Z,16.27
2023-01-19T01:48:55.543Z,15.93
2023-01-19T01:51:27.941Z,16.08
2023-01-19T01:54:09.043Z,15.52
2023-01-19T01:56:47.659Z,15.52
2023-01-19T01:59:39.022Z,16.35
2023-01-19T02:02:28.277Z,15.73
2023-01-19T02:05:01.128Z,15.90
2023-01-19T02:07:59.874Z,15.82
2023-01-19T02:10:45.453Z,15.50
2023-01-19T02:13:22.067Z,16.60
2023-01-19T02:15:54.843Z,14.38
2023-01-19T02:18:23.596Z,15.00
2023-01-19T02:20:56.767Z,13.68
2023-01-19T02:23:35.525Z,15.10
2023-01-19T02:26:02.491Z,14.18
2023-01-19T02:28:30.333Z,14.40
2023-01-19T02:30:57.071Z,14.50
2023-01-19T02:33:23.860Z,14.80
2023-01-19T02:35:52.422Z,13.85
2023-01-19T02:38:20.542Z,15.10
2023-01-19T02:40:48.419Z,13.38
2023-01-19T02:43:17.777Z,15.07
2023-01-19T02:45:44.565Z,15.38
2023-01-19T02:48:11.280Z,14.95
2023-01-19T02:50:46.078Z,15.85
2023-01-19T02:53:31.340Z,16.30
2023-01-19T02:56:19.283Z,14.88
2023-01-19T02:59:13.946Z,14.57
2023-01-19T03:01:55.934Z,14.13
2023-01-19T03:04:40.537Z,15.20
2023-01-19T03:07:11.923Z,14.02
2023-01-19T03:09:58.659Z,14.55
2023-01-19T03:12:39.674Z,15.05
2023-01-19T03:15:18.819Z,14.73
2023-01-19T03:17:49.295Z,14.65
2023-01-19T03:20:21.396Z,14.80
2023-01-19T03:22:53.847Z,13.90
2023-01-19T03:25:21.838Z,14.02
2023-01-19T03:27:51.263Z,13.57
2023-01-19T03:30:24.171Z,15.75
2023-01-19T03:33:01.485Z,14.20
2023-01-19T03:35:31.074Z,15.00
2023-01-19T03:38:03.478Z,14.93
2023-01-19T03:40:32.630Z,14.10
2023-01-19T03:43:01.175Z,13.57
2023-01-19T03:45:28.026Z,14.32
2023-01-19T03:47:55.124Z,14.10
2023-01-19T03:50:27.119Z,13.40
2023-01-19T03:53:02.172Z,13.60
2023-01-19T03:55:29.083Z,13.70
2023-01-19T03:57:55.664Z,13.60
2023-01-19T04:00:22.195Z,14.10
2023-01-19T04:02:48.703Z,14.35
2023-01-19T04:05:15.418Z,15.27
2023-01-19T04:07:41.803Z,14.65
2023-01-19T04:10:12.649Z,13.75
2023-01-19T04:12:40.122Z,15.95
2023-01-19T04:15:07.212Z,13.90
2023-01-19T04:17:33.682Z,13.60
2023-01-19T04:20:00.421Z,14.70
2023-01-19T04:22:26.968Z,15.18
2023-01-19T04:24:53.425Z,13.65
2023-01-19T04:27:19.880Z,13.40
2023-01-19T04:29:46.279Z,13.40
2023-01-19T04:32:16.023Z,14.90
2023-01-19T04:34:42.427Z,13.70
2023-01-19T04:37:09.502Z,13.75
2023-01-19T04:39:35.976Z,14.48
2023-01-19T04:42:02.461Z,13.35
2023-01-19T04:44:28.923Z,14.32
2023-01-19T04:46:55.363Z,13.65
2023-01-19T04:49:21.747Z,14.30
2023-01-19T04:51:48.127Z,13.02
2023-01-19T04:54:14.642Z,13.68
2023-01-19T04:56:41.168Z,15.90
2023-01-19T04:59:07.632Z,13.27
2023-01-19T05:01:34.194Z,14.73
2023-01-19T05:04:01.039Z,13.88
2023-01-19T05:06:27.584Z,13.82
2023-01-19T05:08:54.453Z,13.45
2023-01-19T05:11:20.991Z,13.85
2023-01-19T05:13:47.414Z,14.10
2023-01-19T05:16:14.119Z,14.80
2023-01-19T05:18:40.890Z,16.02
2023-01-19T05:21:07.588Z,13.88
2023-01-19T05:23:34.320Z,14.07
2023-01-19T05:26:02.032Z,13.45
2023-01-19T05:28:30.123Z,13.73
2023-01-19T05:30:56.604Z,13.77
2023-01-19T05:33:23.170Z,13.27
2023-01-19T05:35:50.666Z,15.30
2023-01-19T05:38:20.944Z,16.80
2023-01-19T05:40:59.108Z,13.32
2023-01-19T05:43:25.612Z,13.85
2023-01-19T05:45:52.154Z,14.98
2023-01-19T05:48:18.572Z,14.93
2023-01-19T05:50:44.984Z,15.00
2023-01-19T05:53:11.447Z,15.23
2023-01-19T05:55:37.973Z,15.52
2023-01-19T05:58:04.363Z,15.50
2023-01-19T06:00:30.762Z,15.45
2023-01-19T06:02:57.221Z,14.85
2023-01-19T06:05:23.625Z,15.93
2023-01-19T06:07:50.058Z,15.88
2023-01-19T06:10:16.817Z,16.00
2023-01-19T06:12:43.359Z,16.05
2023-01-19T06:15:10.328Z,15.15
2023-01-19T06:17:36.978Z,16.42
2023-01-19T06:20:05.477Z,16.15
2023-01-19T06:22:31.951Z,15.98
2023-01-19T06:24:58.336Z,16.33
2023-01-19T06:27:24.760Z,15.88
2023-01-19T06:29:51.259Z,15.75
2023-01-19T06:32:17.679Z,16.70
2023-01-19T06:34:44.188Z,18.02
2023-01-19T06:37:15.859Z,16.08
2023-01-19T06:39:42.726Z,16.15
2023-01-19T06:42:09.153Z,15.45
2023-01-19T06:44:35.569Z,16.90
2023-01-19T06:47:14.876Z,16.20
2023-01-19T06:52:16.023Z,15.55
2023-01-19T06:54:43.622Z,15.65
2023-01-19T06:57:12.504Z,16.17
2023-01-19T06:59:39.065Z,16.92
2023-01-19T07:02:27.742Z,16.35
2023-01-19T07:04:52.625Z,16.63
2023-01-19T07:07:19.013Z,16.83
2023-01-19T07:09:45.546Z,16.50
2023-01-19T07:12:12.025Z,15.68
2023-01-19T07:14:38.483Z,16.55
2023-01-19T07:17:04.926Z,16.55
2023-01-19T07:19:31.388Z,16.67
2023-01-19T07:21:57.948Z,16.48
2023-01-19T07:24:24.425Z,15.18
2023-01-19T07:26:50.793Z,16.58
2023-01-19T07:29:17.256Z,16.85
2023-01-19T07:31:43.730Z,17.17
2023-01-19T07:34:12.478Z,17.67
2023-01-19T07:36:39.000Z,17.85
2023-01-19T07:39:05.414Z,17.02
2023-01-19T07:41:32.511Z,18.27
2023-01-19T07:43:58.988Z,17.40
2023-01-19T07:46:25.409Z,17.88
2023-01-19T07:48:51.962Z,16.15
2023-01-19T07:51:18.910Z,15.75
2023-01-19T07:53:46.200Z,17.30
2023-01-19T07:56:12.704Z,17.35
2023-01-19T07:58:39.887Z,15.60
2023-01-19T08:01:11.409Z,16.70
2023-01-19T08:03:37.974Z,16.15
2023-01-19T08:06:05.390Z,16.35
2023-01-19T08:08:33.070Z,16.40
2023-01-19T08:11:00.009Z,17.27
2023-01-19T08:13:27.062Z,16.05
2023-01-19T08:15:54.074Z,17.23
2023-01-19T08:18:21.121Z,17.65
2023-01-19T08:20:47.716Z,17.27
2023-01-19T08:23:14.101Z,18.92
2023-01-19T08:25:47.036Z,18.88
2023-01-19T08:28:15.523Z,17.30
2023-01-19T08:30:44.383Z,17.88
2023-01-19T08:33:12.737Z,18.95
2023-01-19T08:35:43.651Z,18.27
2023-01-19T08:38:10.923Z,18.13
2023-01-19T08:40:39.595Z,18.10
2023-01-19T08:43:15.722Z,19.20
2023-01-19T08:45:49.157Z,18.13
2023-01-19T08:48:17.461Z,18.70
2023-01-19T08:50:46.853Z,18.83
2023-01-19T08:53:14.141Z,20.35
2023-01-19T08:55:40.849Z,18.10
2023-01-19T08:58:08.786Z,19.63
2023-01-19T09:00:40.255Z,19.52
2023-01-19T09:03:09.181Z,19.58
2023-01-19T09:05:38.738Z,20.88
2023-01-19T09:08:08.250Z,21.43
2023-01-19T09:10:36.199Z,19.50
2023-01-19T09:13:08.362Z,20.10
2023-01-19T09:15:37.535Z,20.98
2023-01-19T09:18:06.201Z,21.55
2023-01-19T09:20:34.746Z,20.05
2023-01-19T09:23:01.149Z,20.23
2023-01-19T09:25:27.833Z,21.10
2023-01-19T09:27:56.031Z,20.63
2023-01-19T09:30:22.642Z,20.27
2023-01-19T09:32:49.078Z,20.65
2023-01-19T09:35:15.543Z,21.02
2023-01-19T09:37:46.437Z,19.23
2023-01-19T09:40:13.969Z,20.83
2023-01-19T09:42:43.522Z,20.30
2023-01-19T09:45:37.005Z,20.00
2023-01-19T09:48:23.801Z,19.52
2023-01-19T09:50:50.289Z,19.02
2023-01-19T09:53:26.586Z,19.33
2023-01-19T09:55:52.978Z,20.70
2023-01-19T09:58:20.989Z,19.05
2023-01-19T10:00:53.101Z,20.85
2023-01-19T10:03:20.868Z,20.33
2023-01-19T10:05:53.669Z,19.85
2023-01-19T10:08:45.707Z,20.35
2023-01-19T10:11:29.127Z,18.65
2023-01-19T10:13:59.138Z,19.75
2023-01-19T10:16:42.981Z,19.50
2023-01-19T10:19:22.699Z,19.23
2023-01-19T10:21:51.376Z,20.88
2023-01-19T10:24:27.548Z,19.52
2023-01-19T10:26:55.565Z,19.20
2023-01-19T10:29:37.826Z,20.58
2023-01-19T10:32:08.651Z,20.15
2023-01-19T10:34:35.267Z,20.90
2023-01-19T10:37:32.171Z,20.42
2023-01-19T10:40:13.215Z,18.83
2023-01-19T10:42:41.571Z,19.42
2023-01-19T10:45:18.746Z,19.98
2023-01-19T10:47:48.101Z,20.25
2023-01-19T10:50:30.803Z,20.45
2023-01-19T10:53:00.243Z,19.95
2023-01-19T10:55:33.569Z,21.27
2023-01-19T10:58:00.771Z,20.35
2023-01-19T11:00:39.079Z,20.30
2023-01-19T11:03:23.955Z,20.40
2023-01-19T11:05:50.901Z,20.27
2023-01-19T11:08:30.737Z,20.63
2023-01-19T11:11:03.681Z,20.95
2023-01-19T11:13:31.343Z,21.15
2023-01-19T11:16:04.443Z,21.65
2023-01-19T11:18:34.305Z,20.77
2023-01-19T11:21:03.542Z,21.02
2023-01-19T11:23:34.654Z,20.55
2023-01-19T11:26:05.248Z,20.27
2023-01-19T11:28:34.918Z,20.02
2023-01-19T11:31:14.794Z,21.02
2023-01-19T11:33:49.852Z,19.15
2023-01-19T11:36:23.398Z,19.40
2023-01-19T11:38:52.299Z,20.45
2023-01-19T11:41:21.573Z,20.83
2023-01-19T11:43:52.866Z,20.52
2023-01-19T11:46:20.850Z,20.48
2023-01-19T11:48:57.999Z,19.90
2023-01-19T11:51:28.543Z,20.38
2023-01-19T11:56:28.947Z,20.42
2023-01-19T11:58:55.726Z,20.02
2023-01-19T12:01:25.107Z,20.58
2023-01-19T12:03:59.736Z,19.97
2023-01-19T12:06:31.352Z,20.42
2023-01-19T12:09:10.373Z,20.38
2023-01-19T12:11:48.795Z,20.60
2023-01-19T12:14:26.698Z,20.02
2023-01-19T12:16:58.130Z,19.50
2023-01-19T12:19:55.227Z,20.55
2023-01-19T12:22:23.758Z,19.00
2023-01-19T12:25:00.512Z,20.80
2023-01-19T12:27:39.972Z,20.50
2023-01-19T12:30:15.602Z,20.80
2023-01-19T12:32:43.130Z,21.40
2023-01-19T12:35:48.015Z,20.75
2023-01-19T12:38:35.924Z,20.08
2023-01-19T12:41:21.108Z,20.90
2023-01-19T12:43:49.714Z,21.23
2023-01-19T12:46:20.155Z,20.40
2023-01-19T12:51:26.587Z,20.05
2023-01-19T12:53:56.428Z,20.00
2023-01-19T12:56:31.485Z,20.30
2023-01-19T12:58:58.434Z,20.15
2023-01-19T13:01:26.963Z,20.20
2023-01-19T13:04:09.684Z,21.10
2023-01-19T13:06:48.400Z,21.10
2023-01-19T13:09:38.183Z,20.50
2023-01-19T13:12:13.681Z,21.10
2023-01-19T13:14:41.805Z,22.17
2023-01-19T13:17:51.002Z,22.88
2023-01-19T13:20:44.563Z,21.38
2023-01-19T13:23:18.623Z,21.55
2023-01-19T13:25:49.478Z,22.80
2023-01-19T13:28:18.209Z,21.75
2023-01-19T13:30:54.187Z,21.63
2023-01-19T13:33:24.743Z,20.60
2023-01-19T13:35:54.272Z,21.40
2023-01-19T13:38:22.394Z,19.87
2023-01-19T13:40:49.247Z,20.17
2023-01-19T13:43:25.599Z,19.38
2023-01-19T13:45:53.561Z,20.30
2023-01-19T13:48:25.557Z,19.48
2023-01-19T13:51:00.861Z,21.75
2023-01-19T13:53:27.662Z,19.80
2023-01-19T13:56:07.559Z,19.17
2023-01-19T13:58:34.193Z,18.75
2023-01-19T14:01:00.666Z,18.17
2023-01-19T14:03:27.191Z,18.30
2023-01-19T14:05:54.633Z,17.70
2023-01-19T14:08:22.586Z,18.38
2023-01-19T14:10:52.095Z,17.60
2023-01-19T14:13:21.304Z,17.03
2023-01-19T14:15:50.324Z,16.05
2023-01-19T14:18:16.735Z,17.02
2023-01-19T14:21:03.837Z,17.50
2023-01-19T14:23:48.920Z,16.77
2023-01-19T14:26:37.040Z,17.33
2023-01-19T14:29:18.571Z,17.02
2023-01-19T14:32:05.615Z,16.52
2023-01-19T14:34:33.851Z,15.55
2023-01-19T14:37:01.973Z,17.13
2023-01-19T14:39:34.429Z,16.75
2023-01-19T14:42:05.184Z,16.35
2023-01-19T14:44:36.540Z,16.30
2023-01-19T14:47:04.310Z,16.05
2023-01-19T14:49:35.359Z,15.50
2023-01-19T14:52:06.268Z,15.38
2023-01-19T14:54:39.680Z,15.43
2023-01-19T14:57:12.636Z,15.98
2023-01-19T14:59:39.507Z,15.23
2023-01-19T15:02:06.351Z,15.43
2023-01-19T15:04:32.945Z,14.80
2023-01-19T15:06:59.415Z,13.75
2023-01-19T15:09:25.862Z,14.00
2023-01-19T15:11:52.751Z,14.73
2023-01-19T15:14:21.116Z,15.23
2023-01-19T15:16:48.752Z,14.73
2023-01-19T15:19:17.463Z,15.88
2023-01-19T15:21:47.239Z,17.70
2023-01-19T15:24:14.911Z,16.02
2023-01-19T15:26:42.936Z,16.05
2023-01-19T15:29:25.683Z,14.90
2023-01-19T15:31:52.597Z,16.25
2023-01-19T15:34:19.079Z,16.52
2023-01-19T15:36:45.568Z,16.05
2023-01-19T15:39:11.983Z,16.33
2023-01-19T15:41:39.839Z,16.73
2023-01-19T15:44:07.105Z,16.50
2023-01-19T15:46:33.633Z,17.02
2023-01-19T15:49:00.008Z,17.05
2023-01-19T15:51:27.159Z,17.33
2023-01-19T15:53:54.863Z,16.88
2023-01-19T15:56:27.406Z,17.92
2023-01-19T15:58:55.005Z,17.70
2023-01-19T16:01:33.828Z,17.88
2023-01-19T16:04:02.591Z,17.58
2023-01-19T16:06:30.467Z,17.08
2023-01-19T16:09:01.001Z,15.35
2023-01-19T16:11:30.074Z,15.73
2023-01-19T16:13:56.673Z,15.95
2023-01-19T16:16:24.891Z,15.95
2023-01-19T16:18:51.420Z,15.85
2023-01-19T16:21:18.419Z,15.30
2023-01-19T16:23:44.810Z,16.55
2023-01-19T16:26:32.304Z,16.15
2023-01-19T16:29:01.070Z,15.52
2023-01-19T16:31:28.346Z,15.13
2023-01-19T16:33:54.838Z,15.15
2023-01-19T16:36:29.772Z,15.32
2023-01-19T16:39:06.180Z,14.95
2023-01-19T16:41:33.202Z,14.88
2023-01-19T16:44:00.426Z,14.82
2023-01-19T16:46:30.340Z,13.57
2023-01-19T16:49:11.297Z,14.95
2023-01-19T16:51:37.749Z,15.23
2023-01-19T16:54:04.221Z,13.23
2023-01-19T16:56:30.643Z,15.25
2023-01-19T16:58:58.705Z,16.95
2023-01-19T17:01:27.727Z,15.18
2023-01-19T17:03:55.174Z,15.88
2023-01-19T17:06:23.083Z,15.88
2023-01-19T17:08:50.479Z,14.63
2023-01-19T17:11:20.739Z,14.88
2023-01-19T17:13:48.428Z,15.27
2023-01-19T17:16:15.363Z,16.13
2023-01-19T17:18:42.127Z,15.73
2023-01-19T17:21:10.556Z,18.10
2023-01-19T17:23:41.784Z,17.27
2023-01-19T17:26:08.275Z,17.25
2023-01-19T17:28:34.654Z,17.30
2023-01-19T17:31:27.811Z,17.35
2023-01-19T17:33:54.313Z,17.65
2023-01-19T17:36:25.165Z,16.55
2023-01-19T17:38:53.067Z,16.85
2023-01-19T17:41:21.685Z,17.35
2023-01-19T17:43:50.313Z,16.85
2023-01-19T17:46:17.851Z,16.55
2023-01-19T17:48:44.318Z,16.33
2023-01-19T17:51:12.737Z,15.45
2023-01-19T17:53:41.002Z,16.95
2023-01-19T17:56:13.449Z,15.27
2023-01-19T17:58:40.821Z,18.17
2023-01-19T18:01:15.652Z,15.45
2023-01-19T18:03:42.689Z,15.75
2023-01-19T18:06:09.817Z,15.30
2023-01-19T18:08:39.699Z,15.10
2023-01-19T18:11:06.500Z,15.13
2023-01-19T18:13:33.168Z,16.95
2023-01-19T18:16:01.395Z,16.50
2023-01-19T18:18:28.549Z,13.30
2023-01-19T18:21:03.162Z,19.42
2023-01-19T18:23:29.896Z,15.52
2023-01-19T18:26:01.040Z,14.90
2023-01-19T18:28:28.546Z,12.85
2023-01-19T18:30:55.241Z,12.70
2023-01-19T18:33:21.744Z,11.63
2023-01-19T18:35:48.200Z,14.05
2023-01-19T18:38:15.167Z,11.73
2023-01-19T18:40:41.662Z,11.32
2023-01-19T18:43:12.519Z,10.13
2023-01-19T18:45:41.709Z,12.45
2023-01-19T18:48:09.261Z,11.50
2023-01-19T18:50:37.432Z,10.77
2023-01-19T18:53:03.867Z,12.00
2023-01-19T18:55:30.521Z,11.05
2023-01-19T18:57:57.008Z,11.02
2023-01-19T19:00:23.390Z,10.25
2023-01-19T19:02:49.775Z,9.50
2023-01-19T19:05:16.272Z,8.95
2023-01-19T19:07:42.650Z,9.73
2023-01-19T19:10:09.727Z,10.02
2023-01-19T19:12:36.118Z,8.70
2023-01-19T19:15:02.590Z,9.75
2023-01-19T19:17:29.130Z,7.60
2023-01-19T19:19:55.526Z,8.48
2023-01-19T19:22:23.667Z,7.07
2023-01-19T19:24:51.871Z,8.18
2023-01-19T19:27:18.231Z,7.97
2023-01-19T19:29:46.411Z,7.65
2023-01-19T19:32:12.840Z,7.53
2023-01-19T19:34:39.321Z,8.45
2023-01-19T19:37:05.736Z,9.20
2023-01-19T19:39:32.099Z,8.73
2023-01-19T19:41:58.555Z,6.60
2023-01-19T19:44:24.937Z,6.72
2023-01-19T19:46:51.384Z,6.68
2023-01-19T19:49:21.334Z,10.57
2023-01-19T19:51:48.604Z,6.80
2023-01-19T19:54:15.038Z,7.93
2023-01-19T19:56:41.489Z,6.85
2023-01-19T19:59:07.921Z,8.18
2023-01-19T20:01:34.745Z,9.02
2023-01-19T20:04:12.480Z,9.45
2023-01-19T20:06:41.341Z,5.63
2023-01-19T20:09:10.512Z,9.15
2023-01-19T20:11:37.174Z,6.32
2023-01-19T20:14:08.321Z,5.97
2023-01-19T20:16:35.552Z,7.90
2023-01-19T20:19:02.986Z,6.85
2023-01-19T20:21:31.925Z,7.65
2023-01-19T20:24:07.136Z,7.30
2023-01-19T20:26:35.956Z,7.50
2023-01-19T20:29:06.152Z,8.32
2023-01-19T20:31:35.444Z,5.72
2023-01-19T20:34:04.731Z,5.68
2023-01-19T20:36:31.569Z,5.55
2023-01-19T20:38:58.731Z,6.32
2023-01-19T20:41:26.366Z,6.47
2023-01-19T20:43:53.139Z,8.10
2023-01-19T20:46:19.653Z,7.32
2023-01-19T20:48:50.797Z,4.22
2023-01-19T20:51:18.764Z,6.22
2023-01-19T20:53:45.138Z,6.30
2023-01-19T20:56:13.224Z,5.32
2023-01-19T20:58:40.214Z,7.38
2023-01-19T21:01:25.784Z,6.32
2023-01-19T21:03:52.945Z,8.40
2023-01-19T21:06:20.714Z,5.95
2023-01-19T21:08:49.792Z,7.45
2023-01-19T21:11:19.662Z,6.70
2023-01-19T21:13:46.681Z,5.88
2023-01-19T21:16:14.107Z,8.10
2023-01-19T21:18:40.474Z,7.70
2023-01-19T21:21:10.658Z,6.78
2023-01-19T21:23:41.455Z,10.60
2023-01-19T21:26:07.911Z,8.95
2023-01-19T21:28:34.270Z,6.78
2023-01-19T21:31:09.052Z,9.07
2023-01-19T21:33:36.076Z,7.95
2023-01-19T21:36:02.489Z,7.07
2023-01-19T21:38:32.213Z,5.80
2023-01-19T21:40:58.810Z,9.07
2023-01-19T21:43:26.536Z,7.00
2023-01-19T21:45:53.039Z,6.30
2023-01-19T21:48:19.877Z,7.05
2023-01-19T21:50:46.360Z,5.53
2023-01-19T21:53:12.822Z,5.97
2023-01-19T21:55:44.652Z,8.73
2023-01-19T21:58:11.054Z,8.88
2023-01-19T22:00:37.525Z,7.03
2023-01-19T22:03:04.824Z,6.80
2023-01-19T22:05:36.828Z,6.78
2023-01-19T22:08:04.890Z,7.32
2023-01-19T22:10:31.304Z,7.00
2023-01-19T22:12:57.694Z,8.48
2023-01-19T22:15:39.189Z,5.63
2023-01-19T22:18:05.710Z,6.72
2023-01-19T22:20:32.091Z,6.13
2023-01-19T22:22:58.551Z,6.43
2023-01-19T22:25:27.737Z,6.82
2023-01-19T22:27:55.045Z,8.07
2023-01-19T22:30:21.544Z,5.10
2023-01-19T22:32:47.982Z,7.55
2023-01-19T22:35:15.251Z,7.50
2023-01-19T22:37:41.838Z,10.57
2023-01-19T22:40:08.920Z,6.10
2023-01-19T22:42:35.304Z,5.65
2023-01-19T22:45:01.691Z,8.10
2023-01-19T22:47:28.141Z,6.85
2023-01-19T22:49:54.527Z,5.38
2023-01-19T22:52:20.883Z,6.90
2023-01-19T22:54:47.236Z,6.82
2023-01-19T22:57:13.649Z,7.05
2023-01-19T22:59:40.067Z,5.38
2023-01-19T23:02:06.591Z,7.03
2023-01-19T23:04:32.978Z,7.78
2023-01-19T23:06:59.361Z,5.20
2023-01-19T23:09:25.794Z,6.85
2023-01-19T23:11:53.000Z,5.30
2023-01-19T23:14:22.032Z,7.05
2023-01-19T23:16:48.664Z,5.88
2023-01-19T23:19:17.109Z,7.15
2023-01-19T23:21:44.207Z,6.45
2023-01-19T23:24:10.895Z,5.93
2023-01-19T23:26:40.606Z,5.38
2023-01-19T23:29:11.560Z,6.40
2023-01-19T23:31:39.713Z,5.10
2023-01-19T23:34:08.397Z,6.30
2023-01-19T23:36:36.437Z,7.80
2023-01-19T23:39:11.913Z,6.80
2023-01-19T23:41:38.356Z,6.57
2023-01-19T23:44:05.272Z,9.00
2023-01-19T23:46:31.972Z,6.40
2023-01-19T23:48:58.497Z,7.53
2023-01-19T23:51:27.482Z,7.18
2023-01-19T23:53:54.109Z,4.63
2023-01-19T23:56:22.218Z,5.75
2023-01-19T23:58:56.488Z,6.80
